Time;durP1;ratioP1;P1;durP2;ratioP2;P2;SDS_P1;SDS_P2;PMS_P1;PMS_P2;Temp;Humidity;BMP_temperature;BMP_pressure;BME280_temperature;BME280_humidity;BME280_pressure;Samples;Min_cycle;Max_cycle;Signal;HPM_P1;HPM_P2
2023/08/14 00:00:56;;;;;;;2.87;2.20;;;15.80;99.90;;;;;;5102758;28;20283;-75
2023/08/14 00:03:22;;;;;;;2.80;1.83;;;15.80;99.90;;;;;;5121268;28;20243;-73
2023/08/14 00:05:47;;;;;;;6.33;2.23;;;15.80;99.90;;;;;;5120924;28;20161;-73
2023/08/14 00:08:13;;;;;;;2.77;1.90;;;15.70;99.90;;;;;;5120645;28;20180;-75
2023/08/14 00:10:38;;;;;;;2.87;2.13;;;15.70;99.90;;;;;;5111825;28;20204;-74
2023/08/14 00:13:04;;;;;;;3.57;2.33;;;15.70;99.90;;;;;;5100438;28;20179;-74
2023/08/14 00:15:29;;;;;;;6.50;2.10;;;15.80;99.90;;;;;;5100312;28;20162;-74
2023/08/14 00:17:55;;;;;;;9.20;2.10;;;15.70;99.90;;;;;;5081360;28;20193;-75
2023/08/14 00:20:20;;;;;;;3.00;2.20;;;15.70;99.90;;;;;;5083129;28;20176;-74
2023/08/14 00:22:46;;;;;;;7.50;2.47;;;15.70;99.90;;;;;;5082001;28;20224;-73
2023/08/14 00:25:11;;;;;;;3.70;2.40;;;15.70;99.90;;;;;;5100121;28;20176;-75
2023/08/14 00:27:37;;;;;;;5.03;2.47;;;15.60;99.90;;;;;;5100825;28;20162;-74
2023/08/14 00:30:03;;;;;;;3.83;2.07;;;15.60;99.90;;;;;;5100015;28;20241;-74
2023/08/14 00:32:29;;;;;;;5.00;2.53;;;15.60;99.90;;;;;;5080814;28;20190;-74
2023/08/14 00:34:55;;;;;;;4.83;2.27;;;15.60;99.90;;;;;;5099827;28;20404;-74
2023/08/14 00:37:21;;;;;;;4.90;2.47;;;15.60;99.90;;;;;;5082326;28;20697;-75
2023/08/14 00:39:47;;;;;;;3.27;2.20;;;15.60;99.90;;;;;;5100790;28;20427;-75
2023/08/14 00:42:12;;;;;;;4.80;2.47;;;15.70;99.90;;;;;;5074867;28;20458;-73
2023/08/14 00:44:38;;;;;;;8.50;2.13;;;15.70;99.90;;;;;;5109567;28;20184;-75
2023/08/14 00:47:04;;;;;;;2.37;2.17;;;15.70;99.90;;;;;;5102456;28;20176;-74
2023/08/14 00:49:29;;;;;;;4.23;1.70;;;15.80;99.90;;;;;;5120421;28;20184;-74
2023/08/14 00:51:55;;;;;;;2.23;2.03;;;15.80;99.90;;;;;;5113515;28;20220;-75
2023/08/14 00:54:21;;;;;;;5.90;2.20;;;15.90;99.90;;;;;;5106931;28;20176;-74
2023/08/14 00:56:46;;;;;;;3.93;2.07;;;15.90;99.90;;;;;;5120466;28;20176;-75
2023/08/14 00:59:12;;;;;;;2.87;1.87;;;15.90;99.90;;;;;;5121025;28;20191;-74
2023/08/14 01:01:38;;;;;;;3.00;2.10;;;15.90;99.90;;;;;;5120716;28;20309;-74
2023/08/14 01:04:05;;;;;;;2.93;1.83;;;15.90;99.90;;;;;;5121028;28;20176;-74
2023/08/14 01:06:30;;;;;;;3.93;2.00;;;15.90;99.90;;;;;;5108168;28;20189;-75
2023/08/14 01:08:56;;;;;;;4.43;1.77;;;15.90;99.90;;;;;;5096402;28;20446;-75
2023/08/14 01:12:01;;;;;;;8.50;2.43;;;15.80;99.90;;;;;;5114508;28;20270;-73
2023/08/14 01:14:31;;;;;;;2.80;1.90;;;15.80;99.90;;;;;;5101978;28;20226;-73
2023/08/14 01:17:01;;;;;;;5.10;2.67;;;15.70;99.90;;;;;;5091051;28;20814;-75
2023/08/14 01:19:32;;;;;;;4.73;2.07;;;15.70;99.90;;;;;;5096748;28;20407;-74
2023/08/14 01:22:05;;;;;;;3.10;2.17;;;15.70;99.90;;;;;;5101808;28;20439;-74
2023/08/14 01:24:46;;;;;;;1.70;1.60;;;15.60;99.90;;;;;;5119845;28;20399;-75
2023/08/14 01:27:13;;;;;;;5.77;2.53;;;15.60;99.90;;;;;;5120037;28;20395;-73
2023/08/14 01:29:38;;;;;;;3.30;2.40;;;15.60;99.90;;;;;;5108782;28;20427;-75
2023/08/14 01:32:04;;;;;;;2.10;1.90;;;15.60;99.90;;;;;;5111780;28;20540;-75
2023/08/14 01:34:30;;;;;;;2.73;1.97;;;15.50;99.90;;;;;;5119819;28;20630;-73
2023/08/14 01:37:01;;;;;;;2.27;1.97;;;15.50;99.90;;;;;;5101162;28;20299;-75
2023/08/14 01:39:36;;;;;;;3.60;1.80;;;15.50;99.90;;;;;;5118957;28;20173;-73
2023/08/14 01:42:24;;;;;;;3.70;2.07;;;15.40;99.90;;;;;;5101357;28;20483;-74
2023/08/14 01:44:55;;;;;;;2.50;1.70;;;15.40;99.90;;;;;;5099022;28;20502;-75
2023/08/14 01:47:23;;;;;;;3.40;2.40;;;15.40;99.90;;;;;;5098811;28;20412;-75
2023/08/14 01:49:51;;;;;;;2.90;2.07;;;15.40;99.90;;;;;;5084025;28;20446;-75
2023/08/14 01:52:16;;;;;;;6.33;2.53;;;15.40;99.90;;;;;;5101473;28;20462;-74
2023/08/14 01:54:42;;;;;;;4.00;2.10;;;15.30;99.90;;;;;;5100850;28;20429;-75
2023/08/14 01:57:07;;;;;;;5.97;2.20;;;15.30;99.90;;;;;;5113672;28;20184;-75
2023/08/14 01:59:43;;;;;;;4.60;1.80;;;15.20;99.90;;;;;;5099276;28;20186;-74
2023/08/14 02:02:10;;;;;;;5.97;2.00;;;15.30;99.90;;;;;;5098888;28;20204;-72
2023/08/14 02:04:35;;;;;;;5.47;3.10;;;15.20;99.90;;;;;;5080752;28;20411;-75
2023/08/14 02:07:01;;;;;;;5.70;3.00;;;15.10;99.90;;;;;;5080211;28;20513;-74
2023/08/14 02:09:27;;;;;;;3.40;2.07;;;15.10;99.90;;;;;;5098894;28;20170;-73
2023/08/14 02:11:53;;;;;;;3.50;2.60;;;15.00;99.90;;;;;;5097492;28;20201;-74
2023/08/14 02:14:18;;;;;;;13.23;2.90;;;15.00;99.90;;;;;;5087491;28;20225;-74
2023/08/14 02:16:44;;;;;;;3.00;2.30;;;14.90;99.90;;;;;;5101579;28;20415;-74
2023/08/14 02:19:09;;;;;;;2.73;2.20;;;14.90;99.90;;;;;;5120157;28;20601;-74
2023/08/14 02:21:35;;;;;;;2.10;1.90;;;14.90;99.90;;;;;;5101819;28;20295;-72
2023/08/14 02:24:00;;;;;;;2.33;1.60;;;15.00;99.90;;;;;;5120200;28;20264;-74
2023/08/14 02:26:26;;;;;;;3.17;2.03;;;15.00;99.90;;;;;;5104437;28;20260;-74
2023/08/14 02:28:53;;;;;;;3.30;2.30;;;15.00;99.90;;;;;;5110693;28;20191;-73
2023/08/14 02:31:19;;;;;;;3.60;2.30;;;15.00;99.90;;;;;;5101797;28;20196;-73
2023/08/14 02:33:45;;;;;;;3.07;2.80;;;14.90;99.90;;;;;;5119610;28;20403;-74
2023/08/14 02:36:10;;;;;;;9.37;5.37;;;14.90;99.90;;;;;;5101233;28;20654;-74
2023/08/14 02:38:36;;;;;;;6.67;4.73;;;14.80;99.90;;;;;;5119281;28;20173;-74
2023/08/14 02:41:02;;;;;;;12.13;4.73;;;14.80;99.90;;;;;;5096988;28;20209;-72
2023/08/14 02:43:28;;;;;;;3.20;2.90;;;14.90;99.90;;;;;;5097436;28;20168;-74
2023/08/14 02:45:54;;;;;;;7.60;2.20;;;14.80;99.90;;;;;;5114258;28;20435;-73
2023/08/14 02:48:19;;;;;;;2.70;2.03;;;14.90;99.90;;;;;;5087081;28;20171;-74
2023/08/14 02:50:45;;;;;;;4.57;3.27;;;14.90;99.90;;;;;;5120445;28;20530;-75
2023/08/14 02:53:11;;;;;;;13.50;9.47;;;14.80;99.90;;;;;;5118848;28;20161;-75
2023/08/14 02:55:36;;;;;;;12.87;4.07;;;14.80;99.90;;;;;;5098583;28;20433;-75
2023/08/14 02:58:02;;;;;;;5.50;2.47;;;14.70;99.90;;;;;;5122369;28;20164;-74
2023/08/14 03:00:28;;;;;;;2.87;2.20;;;14.70;99.90;;;;;;5121748;28;20199;-74
2023/08/14 03:02:53;;;;;;;7.80;6.70;;;14.60;99.90;;;;;;5121487;28;20193;-75
2023/08/14 03:05:19;;;;;;;8.23;2.93;;;14.50;99.90;;;;;;5101896;28;20165;-74
2023/08/14 03:07:45;;;;;;;3.37;2.60;;;14.50;99.90;;;;;;5095026;28;20273;-74
2023/08/14 03:10:10;;;;;;;3.10;2.50;;;14.50;99.90;;;;;;5105371;28;20173;-74
2023/08/14 03:12:36;;;;;;;5.43;1.83;;;14.60;99.90;;;;;;5121138;28;20185;-75
2023/08/14 03:15:01;;;;;;;2.13;1.93;;;14.60;99.90;;;;;;5120066;28;20161;-75
2023/08/14 03:17:27;;;;;;;2.27;1.97;;;14.60;99.90;;;;;;5103322;28;20165;-74
2023/08/14 03:19:52;;;;;;;3.30;1.87;;;14.60;99.90;;;;;;5121196;28;20165;-73
2023/08/14 03:22:18;;;;;;;4.93;2.50;;;14.60;99.90;;;;;;5093927;28;20215;-75
2023/08/14 03:24:43;;;;;;;10.53;2.90;;;14.60;99.90;;;;;;5095145;28;20180;-74
2023/08/14 03:27:09;;;;;;;6.60;2.60;;;14.50;99.90;;;;;;5120487;28;20175;-73
2023/08/14 03:29:34;;;;;;;6.70;2.43;;;14.50;99.90;;;;;;5120919;28;20179;-72
2023/08/14 03:32:00;;;;;;;7.50;2.30;;;14.50;99.90;;;;;;5103175;28;20221;-74
2023/08/14 03:34:25;;;;;;;2.40;2.20;;;14.50;99.90;;;;;;5121239;28;20180;-74
2023/08/14 03:36:51;;;;;;;2.40;2.20;;;14.50;99.90;;;;;;5104762;28;20185;-74
2023/08/14 03:39:17;;;;;;;4.90;1.97;;;14.40;99.90;;;;;;5095537;28;20414;-74
2023/08/14 03:41:44;;;;;;;4.43;2.60;;;14.40;99.90;;;;;;5101168;28;20236;-74
2023/08/14 03:44:10;;;;;;;3.73;1.90;;;14.40;99.90;;;;;;5104493;28;20231;-74
2023/08/14 03:46:35;;;;;;;4.43;2.00;;;14.40;99.90;;;;;;5110148;28;20915;-74
2023/08/14 03:49:01;;;;;;;3.50;2.07;;;14.40;99.90;;;;;;5120344;28;20644;-74
2023/08/14 03:51:26;;;;;;;6.40;3.20;;;14.40;99.90;;;;;;5119280;28;20217;-74
2023/08/14 03:53:52;;;;;;;3.63;3.33;;;14.40;99.90;;;;;;5099730;28;20165;-75
2023/08/14 03:56:17;;;;;;;5.70;4.50;;;14.40;99.90;;;;;;5098668;28;20168;-73
2023/08/14 03:58:43;;;;;;;3.93;2.80;;;14.40;99.90;;;;;;5083468;28;20183;-74
2023/08/14 04:01:08;;;;;;;5.07;2.93;;;14.40;99.90;;;;;;5084393;28;20201;-74
2023/08/14 04:03:34;;;;;;;3.83;2.30;;;14.40;99.90;;;;;;5120753;28;20251;-73
2023/08/14 04:06:00;;;;;;;2.53;2.20;;;14.30;99.90;;;;;;5120067;28;20181;-74
2023/08/14 04:08:26;;;;;;;2.50;2.07;;;14.30;99.90;;;;;;5120058;28;20515;-73
2023/08/14 04:10:54;;;;;;;4.27;1.80;;;14.40;99.90;;;;;;5118474;28;20452;-74
2023/08/14 04:13:19;;;;;;;4.33;2.40;;;14.40;99.90;;;;;;5077122;28;20228;-74
2023/08/14 04:15:45;;;;;;;2.97;2.20;;;14.50;99.90;;;;;;5097199;28;20806;-74
2023/08/14 04:18:10;;;;;;;8.10;2.53;;;14.50;99.90;;;;;;5099417;28;20181;-73
2023/08/14 04:20:36;;;;;;;2.00;1.67;;;14.50;99.90;;;;;;5080173;28;20228;-72
2023/08/14 04:23:01;;;;;;;2.00;1.60;;;14.50;99.90;;;;;;5097759;28;20631;-74
2023/08/14 04:25:28;;;;;;;3.13;2.07;;;14.50;99.90;;;;;;5096316;28;20315;-75
2023/08/14 04:27:54;;;;;;;6.03;1.90;;;14.50;99.90;;;;;;5096391;28;20229;-72
2023/08/14 04:30:20;;;;;;;2.80;1.90;;;14.50;99.90;;;;;;5099167;28;20403;-74
2023/08/14 04:32:45;;;;;;;5.13;2.30;;;14.50;99.90;;;;;;5080610;28;20193;-74
2023/08/14 04:35:11;;;;;;;2.07;1.70;;;14.50;99.90;;;;;;5097060;28;20166;-73
2023/08/14 04:37:37;;;;;;;2.10;1.63;;;14.50;99.90;;;;;;5099241;28;20173;-74
2023/08/14 04:40:04;;;;;;;3.47;2.90;;;14.40;99.90;;;;;;5096895;28;20205;-73
2023/08/14 04:42:31;;;;;;;2.90;1.97;;;14.40;99.90;;;;;;5083930;28;20185;-74
2023/08/14 04:44:56;;;;;;;5.10;2.23;;;14.40;99.90;;;;;;5099729;28;20438;-72
2023/08/14 04:47:22;;;;;;;4.20;2.10;;;14.50;99.90;;;;;;5111435;28;20439;-74
2023/08/14 04:49:47;;;;;;;5.63;2.00;;;14.50;99.90;;;;;;5098424;28;20219;-73
2023/08/14 04:52:13;;;;;;;5.73;2.97;;;14.60;99.90;;;;;;5116578;28;20189;-73
2023/08/14 04:54:38;;;;;;;4.10;3.13;;;14.60;99.90;;;;;;5117954;28;20181;-75
2023/08/14 04:57:04;;;;;;;3.77;2.50;;;14.70;99.90;;;;;;5118594;28;20349;-74
2023/08/14 04:59:29;;;;;;;3.17;2.70;;;14.70;99.90;;;;;;5099397;28;20175;-75
2023/08/14 05:01:55;;;;;;;4.10;2.00;;;14.80;99.90;;;;;;5092519;28;20291;-73
2023/08/14 05:04:22;;;;;;;2.47;2.07;;;14.80;99.90;;;;;;5104282;28;20637;-73
2023/08/14 05:06:47;;;;;;;4.80;1.93;;;14.90;99.90;;;;;;5098963;28;20195;-72
2023/08/14 05:09:13;;;;;;;2.67;2.47;;;14.90;99.90;;;;;;5099323;28;20419;-71
2023/08/14 05:11:39;;;;;;;3.20;2.00;;;15.00;99.90;;;;;;5117744;28;20192;-73
2023/08/14 05:14:05;;;;;;;1.87;1.77;;;15.00;99.90;;;;;;5099313;28;20244;-72
2023/08/14 05:16:30;;;;;;;3.97;2.00;;;15.10;99.90;;;;;;5098862;28;20438;-73
2023/08/14 05:18:56;;;;;;;7.63;2.57;;;15.10;99.90;;;;;;5090329;28;20642;-74
2023/08/14 05:21:21;;;;;;;4.73;2.37;;;15.20;99.90;;;;;;5117316;28;20204;-74
2023/08/14 05:23:47;;;;;;;3.40;1.80;;;15.30;99.90;;;;;;5098697;28;20173;-74
2023/08/14 05:26:13;;;;;;;3.13;2.43;;;15.40;99.90;;;;;;5098734;28;20177;-75
2023/08/14 05:28:38;;;;;;;7.73;3.20;;;15.50;99.90;;;;;;5098907;28;20717;-73
2023/08/14 05:31:07;;;;;;;2.50;2.10;;;15.60;99.90;;;;;;5098127;28;20562;-74
2023/08/14 05:33:33;;;;;;;2.77;2.53;;;15.80;99.90;;;;;;5113397;28;20173;-74
2023/08/14 05:35:58;;;;;;;2.63;2.40;;;16.00;99.90;;;;;;5099040;28;20456;-75
2023/08/14 05:38:24;;;;;;;3.23;2.43;;;16.10;99.90;;;;;;5099220;28;20173;-74
2023/08/14 05:40:50;;;;;;;4.03;2.70;;;16.20;99.90;;;;;;5117385;28;20205;-73
2023/08/14 05:43:15;;;;;;;6.97;2.20;;;16.30;99.90;;;;;;5098757;28;20230;-74
2023/08/14 05:45:45;;;;;;;5.40;4.10;;;16.40;99.90;;;;;;5116720;28;20165;-74
2023/08/14 05:48:12;;;;;;;3.30;2.63;;;16.60;99.90;;;;;;5117101;28;20167;-75
2023/08/14 05:50:39;;;;;;;3.70;2.53;;;16.80;99.90;;;;;;5099157;28;20457;-75
2023/08/14 05:53:06;;;;;;;7.07;2.93;;;17.20;99.90;;;;;;5099351;28;20449;-74
2023/08/14 05:55:36;;;;;;;3.10;2.60;;;17.50;99.90;;;;;;5098711;28;20616;-75
2023/08/14 05:58:03;;;;;;;5.20;2.83;;;17.80;99.90;;;;;;5099106;28;20411;-74
2023/08/14 06:00:29;;;;;;;3.13;2.20;;;18.10;99.90;;;;;;5098185;28;20494;-73
2023/08/14 06:02:55;;;;;;;5.27;2.37;;;18.40;99.90;;;;;;5098570;28;20770;-73
2023/08/14 06:05:21;;;;;;;5.30;2.57;;;18.70;99.90;;;;;;5116352;28;20414;-74
2023/08/14 06:07:48;;;;;;;3.53;2.07;;;18.80;99.90;;;;;;5117747;28;20419;-74
2023/08/14 06:10:14;;;;;;;3.03;2.27;;;19.10;99.90;;;;;;5115771;28;20410;-74
2023/08/14 06:12:39;;;;;;;5.20;2.30;;;19.10;99.90;;;;;;5116866;28;20422;-73
2023/08/14 06:15:06;;;;;;;3.30;2.10;;;19.10;99.90;;;;;;5117010;28;20586;-73
2023/08/14 06:17:32;;;;;;;4.57;2.47;;;19.20;99.90;;;;;;5099228;28;20654;-74
2023/08/14 06:19:58;;;;;;;9.50;2.70;;;19.30;99.90;;;;;;5098392;28;20494;-74
2023/08/14 06:22:24;;;;;;;6.03;2.20;;;19.30;99.90;;;;;;5117302;28;20616;-75
2023/08/14 06:24:50;;;;;;;2.60;1.80;;;19.40;99.90;;;;;;5099218;28;20927;-74
2023/08/14 06:27:15;;;;;;;7.30;2.50;;;19.50;99.90;;;;;;5098553;28;20181;-74
2023/08/14 06:29:41;;;;;;;2.87;2.10;;;19.50;99.90;;;;;;5097811;28;20305;-75
2023/08/14 06:32:06;;;;;;;2.17;1.83;;;19.60;99.90;;;;;;5118619;28;20185;-74
2023/08/14 06:34:32;;;;;;;3.00;2.20;;;19.70;99.90;;;;;;5099455;28;20183;-74
2023/08/14 06:36:58;;;;;;;3.30;1.70;;;20.00;99.90;;;;;;5098453;28;20172;-74
2023/08/14 06:39:23;;;;;;;2.90;1.80;;;20.10;99.90;;;;;;5116941;28;20169;-73
2023/08/14 06:41:49;;;;;;;3.70;2.50;;;20.60;99.90;;;;;;5118146;28;20539;-75
2023/08/14 06:44:14;;;;;;;4.50;2.30;;;21.40;99.90;;;;;;5116914;28;20161;-75
2023/08/14 06:46:40;;;;;;;4.63;2.17;;;21.80;99.90;;;;;;5116100;28;20164;-75
2023/08/14 06:49:05;;;;;;;5.13;2.70;;;22.10;99.90;;;;;;5117493;28;20157;-73
2023/08/14 06:51:32;;;;;;;5.47;2.60;;;22.30;99.90;;;;;;5098486;28;20188;-75
2023/08/14 06:53:58;;;;;;;3.43;2.10;;;22.60;99.90;;;;;;5117647;28;20579;-74
2023/08/14 06:56:24;;;;;;;2.60;2.10;;;22.90;99.90;;;;;;5098484;28;20415;-74
2023/08/14 06:58:50;;;;;;;5.33;2.77;;;22.80;99.90;;;;;;5118014;28;20204;-73
2023/08/14 07:01:15;;;;;;;2.70;2.23;;;23.10;99.90;;;;;;5118078;28;20523;-75
2023/08/14 07:03:41;;;;;;;2.43;2.10;;;23.80;99.90;;;;;;5117662;28;20157;-75
2023/08/14 07:06:06;;;;;;;2.80;1.50;;;24.40;99.90;;;;;;5118833;28;20626;-75
2023/08/14 07:08:32;;;;;;;2.60;1.90;;;25.40;99.90;;;;;;5120433;28;20218;-73
2023/08/14 07:10:58;;;;;;;2.90;2.00;;;26.70;99.90;;;;;;5121452;28;20180;-72
2023/08/14 07:13:23;;;;;;;3.50;1.67;;;27.80;99.90;;;;;;5120170;28;20165;-72
2023/08/14 07:15:49;;;;;;;2.43;1.50;;;28.40;99.90;;;;;;5119690;28;20165;-72
2023/08/14 07:18:17;;;;;;;1.70;1.50;;;28.70;99.90;;;;;;5120828;28;20210;-72
2023/08/14 07:20:44;;;;;;;3.43;1.83;;;28.70;97.30;;;;;;5101099;28;20201;-73
2023/08/14 07:23:12;;;;;;;4.17;1.80;;;28.50;92.60;;;;;;5119947;28;20406;-73
2023/08/14 07:25:37;;;;;;;5.00;1.87;;;28.40;93.80;;;;;;5119165;28;20451;-73
2023/08/14 07:28:03;;;;;;;1.63;1.33;;;28.40;94.90;;;;;;5100557;28;20406;-73
2023/08/14 07:30:29;;;;;;;2.50;1.90;;;28.40;96.50;;;;;;5112572;28;20259;-72
2023/08/14 07:32:54;;;;;;;2.03;1.80;;;28.60;93.80;;;;;;5112733;28;20453;-72
2023/08/14 07:35:20;;;;;;;4.73;3.37;;;28.70;91.20;;;;;;5112334;28;20248;-73
2023/08/14 07:37:45;;;;;;;3.20;1.90;;;28.60;86.40;;;;;;5112590;28;20648;-73
2023/08/14 07:40:11;;;;;;;3.70;2.80;;;28.40;83.00;;;;;;5112699;28;20173;-72
2023/08/14 07:42:37;;;;;;;5.90;3.00;;;28.50;87.50;;;;;;5115554;28;20191;-71
2023/08/14 07:45:02;;;;;;;8.60;2.40;;;28.80;90.50;;;;;;5116448;28;20180;-73
2023/08/14 07:47:28;;;;;;;2.43;2.07;;;29.30;81.90;;;;;;5116374;28;20168;-73
2023/08/14 07:49:54;;;;;;;3.83;2.23;;;29.30;76.90;;;;;;5117408;28;20169;-71
2023/08/14 07:52:19;;;;;;;3.73;2.37;;;29.20;75.60;;;;;;5119137;28;20657;-71
2023/08/14 07:54:45;;;;;;;2.60;2.40;;;28.90;77.70;;;;;;5120020;28;20181;-72
2023/08/14 07:57:10;;;;;;;12.33;3.60;;;28.80;80.60;;;;;;5100903;28;20169;-72
2023/08/14 07:59:36;;;;;;;6.70;3.67;;;29.00;77.40;;;;;;5118171;28;20241;-71
2023/08/14 08:02:02;;;;;;;5.30;3.37;;;30.20;78.10;;;;;;5118992;28;20261;-71
2023/08/14 08:04:29;;;;;;;6.10;3.07;;;31.40;68.50;;;;;;5118955;28;20193;-72
2023/08/14 08:06:55;;;;;;;8.30;2.60;;;32.60;63.50;;;;;;5115752;28;20183;-73
2023/08/14 08:09:20;;;;;;;3.40;2.73;;;33.10;57.30;;;;;;5117921;28;20410;-72
2023/08/14 08:11:46;;;;;;;3.90;3.53;;;33.80;56.70;;;;;;5119793;28;20185;-72
2023/08/14 08:14:12;;;;;;;4.07;3.20;;;33.90;53.40;;;;;;5120455;28;20172;-71
2023/08/14 08:16:37;;;;;;;5.33;2.80;;;34.20;53.30;;;;;;5102553;28;20180;-72
2023/08/14 08:19:04;;;;;;;7.20;2.90;;;35.00;51.30;;;;;;5120655;28;20169;-72
2023/08/14 08:21:30;;;;;;;5.03;2.63;;;36.20;50.20;;;;;;5099462;28;20285;-72
2023/08/14 08:23:56;;;;;;;6.10;3.00;;;35.30;44.50;;;;;;5120092;28;20373;-72
2023/08/14 08:26:22;;;;;;;2.77;2.10;;;34.60;46.60;;;;;;5118281;28;20165;-72
2023/08/14 08:28:47;;;;;;;3.03;2.60;;;35.10;48.60;;;;;;5099395;28;20172;-73
2023/08/14 08:31:14;;;;;;;4.40;2.70;;;36.00;48.80;;;;;;5116001;28;20437;-73
2023/08/14 08:33:39;;;;;;;3.10;1.90;;;37.60;45.40;;;;;;5118788;28;20642;-72
2023/08/14 08:36:05;;;;;;;2.50;2.30;;;39.00;41.20;;;;;;5119956;28;20414;-73
2023/08/14 08:38:30;;;;;;;3.17;2.60;;;41.00;42.10;;;;;;5120624;28;20180;-72
2023/08/14 08:40:59;;;;;;;5.50;2.90;;;43.00;39.30;;;;;;5120048;28;20204;-73
2023/08/14 08:43:25;;;;;;;5.50;3.03;;;43.60;33.30;;;;;;5121315;28;20199;-73
2023/08/14 08:45:56;;;;;;;3.63;2.57;;;44.70;33.70;;;;;;5119823;28;20491;-73
2023/08/14 08:48:22;;;;;;;3.97;2.40;;;45.40;32.20;;;;;;5118850;28;20385;-74
2023/08/14 08:50:50;;;;;;;3.93;2.63;;;46.80;32.30;;;;;;5116496;28;20430;-73
2023/08/14 08:53:20;;;;;;;4.40;3.20;;;48.20;30.60;;;;;;5115685;28;20431;-73
2023/08/14 08:55:50;;;;;;;3.03;2.60;;;48.10;27.60;;;;;;5116280;28;20439;-74
2023/08/14 08:58:18;;;;;;;2.67;2.40;;;49.10;28.60;;;;;;5117576;28;20437;-73
2023/08/14 09:00:44;;;;;;;2.80;2.50;;;49.80;25.70;;;;;;5116665;28;20438;-73
2023/08/14 09:03:10;;;;;;;3.50;2.80;;;49.80;26.50;;;;;;5117063;28;20407;-73
2023/08/14 09:05:36;;;;;;;3.73;2.73;;;49.50;24.80;;;;;;5115870;28;20410;-73
2023/08/14 09:08:02;;;;;;;2.87;2.50;;;49.40;24.80;;;;;;5116845;28;20923;-74
2023/08/14 09:10:29;;;;;;;6.07;3.20;;;49.30;25.20;;;;;;5116015;28;20949;-73
2023/08/14 09:12:55;;;;;;;4.87;2.83;;;48.80;25.30;;;;;;5117671;28;20418;-74
2023/08/14 09:15:23;;;;;;;2.60;2.30;;;49.00;25.60;;;;;;5116859;28;20407;-73
2023/08/14 09:17:50;;;;;;;2.63;2.37;;;48.00;25.30;;;;;;5117754;28;20380;-73
2023/08/14 09:20:17;;;;;;;3.30;2.30;;;46.80;26.50;;;;;;5120349;28;20742;-73
2023/08/14 09:22:43;;;;;;;2.70;1.97;;;45.70;27.20;;;;;;5120283;28;20401;-73
2023/08/14 09:25:08;;;;;;;6.27;3.10;;;44.70;27.50;;;;;;5121937;28;20426;-73
2023/08/14 09:27:34;;;;;;;2.60;2.30;;;44.80;28.60;;;;;;5117303;28;20626;-73
2023/08/14 09:30:00;;;;;;;3.73;2.30;;;46.00;28.40;;;;;;5115976;28;20172;-73
2023/08/14 09:32:26;;;;;;;4.17;3.77;;;47.10;26.90;;;;;;5119919;28;20421;-73
2023/08/14 09:35:00;;;;;;;2.80;2.50;;;45.20;25.70;;;;;;5102005;28;20407;-73
2023/08/14 09:37:25;;;;;;;2.73;2.53;;;44.10;27.20;;;;;;5098478;28;20173;-73
2023/08/14 09:40:14;;;;;;;2.47;2.27;;;42.80;28.20;;;;;;5118282;28;20461;-73
2023/08/14 09:42:44;;;;;;;4.20;2.50;;;42.20;29.70;;;;;;5120412;28;20177;-73
2023/08/14 09:45:12;;;;;;;3.07;2.70;;;43.60;30.70;;;;;;5097911;28;20889;-74
2023/08/14 09:47:40;;;;;;;2.80;2.50;;;45.70;28.90;;;;;;5116947;28;20378;-73
2023/08/14 09:50:06;;;;;;;2.87;2.57;;;47.50;27.90;;;;;;5121500;28;20373;-74
2023/08/14 09:52:32;;;;;;;5.50;2.93;;;49.50;27.30;;;;;;5122184;28;20512;-74
2023/08/14 09:54:58;;;;;;;3.50;3.20;;;51.10;25.70;;;;;;5119892;28;20168;-74
2023/08/14 09:57:24;;;;;;;5.13;3.47;;;51.80;24.80;;;;;;5102181;28;20203;-73
2023/08/14 09:59:51;;;;;;;4.07;3.77;;;53.50;25.90;;;;;;5121497;28;20399;-72
2023/08/14 10:02:20;;;;;;;3.47;3.10;;;53.70;24.30;;;;;;5119247;28;20216;-71
2023/08/14 10:04:46;;;;;;;5.53;2.93;;;52.50;23.50;;;;;;5115694;28;20407;-71
2023/08/14 10:07:20;;;;;;;7.13;3.50;;;50.90;24.00;;;;;;5115997;28;20426;-71
2023/08/14 10:09:55;;;;;;;4.80;3.13;;;49.00;24.40;;;;;;5117573;28;20407;-74
2023/08/14 10:12:23;;;;;;;4.50;3.37;;;47.20;25.70;;;;;;5117558;28;20433;-73
2023/08/14 10:15:17;;;;;;;5.23;3.40;;;45.30;25.30;;;;;;5115179;28;20381;-72
2023/08/14 10:17:51;;;;;;;6.50;2.70;;;42.90;27.50;;;;;;5110374;28;20411;-73
2023/08/14 10:20:20;;;;;;;5.13;3.23;;;42.50;28.40;;;;;;5113985;28;20469;-72
2023/08/14 10:22:46;;;;;;;3.80;2.97;;;42.00;28.50;;;;;;5115004;28;20902;-73
2023/08/14 10:25:13;;;;;;;3.23;2.67;;;42.40;29.40;;;;;;5117889;28;20369;-73
2023/08/14 10:27:39;;;;;;;3.00;2.37;;;43.50;29.00;;;;;;5116680;28;20373;-72
2023/08/14 10:30:06;;;;;;;3.73;2.43;;;45.10;29.60;;;;;;5097055;28;20495;-73
2023/08/14 10:32:34;;;;;;;5.37;3.60;;;46.30;27.90;;;;;;5116563;28;20196;-74
2023/08/14 10:34:59;;;;;;;3.40;2.93;;;45.90;27.40;;;;;;5100453;28;20392;-73
2023/08/14 10:37:40;;;;;;;8.87;3.70;;;45.10;27.80;;;;;;5117682;28;20377;-73
2023/08/14 10:40:22;;;;;;;5.23;2.70;;;44.30;27.50;;;;;;5117523;28;20525;-73
2023/08/14 10:42:52;;;;;;;6.63;2.83;;;44.10;27.70;;;;;;5116648;28;20471;-72
2023/08/14 10:45:22;;;;;;;4.87;3.00;;;44.00;27.70;;;;;;5117093;28;20365;-73
2023/08/14 10:47:47;;;;;;;4.17;3.17;;;43.30;27.80;;;;;;5117261;28;20377;-73
2023/08/14 10:50:22;;;;;;;4.33;3.00;;;42.70;28.90;;;;;;5117082;28;20398;-73
2023/08/14 10:52:50;;;;;;;6.03;3.60;;;42.40;29.70;;;;;;5115939;28;20180;-73
2023/08/14 10:55:23;;;;;;;3.90;2.53;;;41.90;29.90;;;;;;5116654;28;20366;-72
2023/08/14 10:57:49;;;;;;;3.30;2.57;;;41.90;31.00;;;;;;5118005;28;20366;-73
2023/08/14 11:00:23;;;;;;;2.30;2.10;;;42.20;31.30;;;;;;5117317;28;20431;-73
2023/08/14 11:02:50;;;;;;;2.83;2.63;;;42.20;30.90;;;;;;5115517;28;20238;-74
2023/08/14 11:05:17;;;;;;;3.43;2.73;;;41.20;28.90;;;;;;5113004;28;20426;-72
2023/08/14 11:07:56;;;;;;;2.63;2.43;;;40.50;29.50;;;;;;5114820;28;20397;-72
2023/08/14 11:10:24;;;;;;;2.37;1.80;;;38.90;30.00;;;;;;5115087;28;20780;-71
2023/08/14 11:12:50;;;;;;;2.33;1.80;;;37.60;31.40;;;;;;5115357;28;20458;-72
2023/08/14 11:15:16;;;;;;;3.47;1.93;;;36.80;33.30;;;;;;5115583;28;20403;-73
2023/08/14 11:17:42;;;;;;;4.23;2.40;;;36.20;34.30;;;;;;5119769;28;20429;-71
2023/08/14 11:20:12;;;;;;;4.87;1.63;;;35.10;34.80;;;;;;5118851;28;20975;-72
2023/08/14 11:22:38;;;;;;;5.23;2.20;;;34.70;36.30;;;;;;5118716;28;20560;-72
2023/08/14 11:25:05;;;;;;;7.47;2.73;;;33.90;37.70;;;;;;5117725;28;20436;-71
2023/08/14 11:27:30;;;;;;;5.57;2.73;;;33.30;38.20;;;;;;5117556;28;20157;-72
2023/08/14 11:29:56;;;;;;;4.10;2.07;;;33.20;39.20;;;;;;5117068;28;20403;-72
2023/08/14 11:32:22;;;;;;;4.93;2.10;;;32.90;39.60;;;;;;5117259;28;20200;-72
2023/08/14 11:34:49;;;;;;;2.27;1.90;;;32.60;40.10;;;;;;5116371;28;20586;-72
2023/08/14 11:37:14;;;;;;;3.73;1.90;;;32.70;40.80;;;;;;5116177;28;20410;-71
2023/08/14 11:39:42;;;;;;;3.03;2.70;;;32.70;41.10;;;;;;5117094;28;20403;-72
2023/08/14 11:42:09;;;;;;;3.80;1.80;;;32.50;41.30;;;;;;5116173;28;20546;-73
2023/08/14 11:44:34;;;;;;;3.30;2.07;;;32.70;42.00;;;;;;5099279;28;20498;-72
2023/08/14 11:47:02;;;;;;;6.30;2.20;;;33.50;42.30;;;;;;5118134;28;20430;-73
2023/08/14 11:49:30;;;;;;;4.40;2.03;;;36.30;41.30;;;;;;5118221;28;20572;-73
2023/08/14 11:51:56;;;;;;;3.30;2.30;;;38.60;38.40;;;;;;5119344;28;20451;-73
2023/08/14 11:54:22;;;;;;;3.83;2.30;;;40.60;35.20;;;;;;5106763;28;20723;-73
2023/08/14 11:56:48;;;;;;;4.73;2.00;;;41.30;33.40;;;;;;5105703;28;20629;-72
2023/08/14 11:59:15;;;;;;;2.70;2.50;;;41.60;32.00;;;;;;5100256;28;20165;-73
2023/08/14 12:01:41;;;;;;;4.10;3.10;;;40.30;33.40;;;;;;5101779;28;20602;-73
2023/08/14 12:04:06;;;;;;;2.97;2.67;;;39.10;33.90;;;;;;5120535;28;20377;-73
2023/08/14 12:06:33;;;;;;;4.67;2.80;;;37.90;35.60;;;;;;5119956;28;20487;-73
2023/08/14 12:08:59;;;;;;;4.73;2.80;;;37.50;37.30;;;;;;5116848;28;20608;-73
2023/08/14 12:11:25;;;;;;;3.90;2.83;;;39.10;38.80;;;;;;5119292;28;20460;-74
2023/08/14 12:13:51;;;;;;;6.83;2.80;;;41.50;36.30;;;;;;5103321;28;20468;-74
2023/08/14 12:16:20;;;;;;;2.60;2.40;;;42.90;33.40;;;;;;5123453;28;20176;-73
2023/08/14 12:18:46;;;;;;;4.40;2.47;;;42.90;31.80;;;;;;5121906;28;20427;-73
2023/08/14 12:21:12;;;;;;;4.70;2.57;;;42.00;32.20;;;;;;5122020;28;20716;-73
2023/08/14 12:23:44;;;;;;;2.97;2.77;;;41.00;33.00;;;;;;5118683;28;20481;-74
2023/08/14 12:26:09;;;;;;;4.77;2.73;;;40.30;34.30;;;;;;5118044;28;20381;-73
2023/08/14 12:28:35;;;;;;;3.67;2.63;;;39.30;35.50;;;;;;5117725;28;20524;-72
2023/08/14 12:31:00;;;;;;;3.37;2.50;;;38.20;36.90;;;;;;5119061;28;20241;-73
2023/08/14 12:33:26;;;;;;;4.30;2.93;;;37.90;38.00;;;;;;5117974;28;20161;-71
2023/08/14 12:35:52;;;;;;;5.00;2.67;;;37.80;38.60;;;;;;5117175;28;20157;-72
2023/08/14 12:38:18;;;;;;;5.50;2.70;;;37.60;39.60;;;;;;5118173;28;20160;-73
2023/08/14 12:40:43;;;;;;;3.13;2.10;;;37.30;40.10;;;;;;5116032;28;20391;-73
2023/08/14 12:43:09;;;;;;;4.43;2.77;;;38.20;39.90;;;;;;5116232;28;20685;-74